Apogee — ZCNE3 — position and weather

sailwx.info

Track history (hours):
 
Tides and Currents Weather Stations Pressure Air Temp Water Temp Dewpoint Dewpoint Depression Visibility Wind Speed Wind Dir Waves Ship Positions

Apogee

Last reported at 2018-May-25 04:56 UTC. Time now 2018-May-25 05:22 UTC.
Position N 36°08' W 005°22'.

Length 62 m; draft 3.8 m.

Type: Pleasure craft. MMSI: 319989000.

Date/timePositionNaut miles runAvg speedWind from/ knotsBaromVisibWave heightAir tempDewpointWater temp
2018-May-25 04:56N 36°08' W 005°22'0 0.0
2018-May-25 04:26N 36°08' W 005°22'0 0.0
2018-May-24 01:08N 36°08' W 005°22'0 0.0
2018-May-24 00:56N 36°08' W 005°22'0 0.0
2018-May-24 00:20N 36°08' W 005°22'0 0.0
2018-May-23 23:56N 36°08' W 005°22'0 0.0
2018-May-23 23:26N 36°08' W 005°22'0 0.0
2018-May-23 22:56N 36°08' W 005°22'0 0.0
2018-May-23 21:44N 36°08' W 005°22'0 0.0
2018-May-23 20:20N 36°08' W 005°22'0 0.0
2018-May-22 21:43N 36°08' W 005°22'0 0.0
2018-May-22 21:25N 36°08' W 005°22'0 0.0
2018-May-22 18:18N 36°08' W 005°22'0 0.1
2018-May-22 18:01N 36°08' W 005°22'4 7.0
2018-May-22 17:30N 36°05' W 005°23'715.2
2018-May-22 17:00N 35°58' W 005°27'  
2018-May-20 05:10N 37°25' W 023°46'315.6
2018-May-20 05:00N 37°26' W 023°49'815.2
2018-May-20 04:30N 37°27' W 023°58'715.0
2018-May-20 04:00N 37°28' W 024°08'815.1
2018-May-20 03:30N 37°29' W 024°17'714.8
2018-May-20 03:00N 37°30' W 024°26'715.0
2018-May-20 02:30N 37°30' W 024°36'714.9
2018-May-20 02:00N 37°30' W 024°45'715.0
2018-May-20 01:30N 37°30' W 024°55'714.9
2018-May-20 01:00N 37°30' W 025°04'714.9
2018-May-20 00:30N 37°30' W 025°13'714.7
2018-May-20 00:00N 37°30' W 025°23'714.8
2018-May-19 23:30N 37°30' W 025°32'714.5
2018-May-19 23:00N 37°30' W 025°41'714.6
2018-May-19 22:31N 37°29' W 025°50'714.5
2018-May-19 22:00N 37°28' W 025°60'714.1
2018-May-19 21:30N 37°27' W 026°08'714.2
2018-May-19 21:01N 37°27' W 026°17'714.9
2018-May-19 20:30N 37°26' W 026°27'815.1
2018-May-19 20:00N 37°25' W 026°36'815.2
2018-May-19 19:31N 37°24' W 026°45'714.9
2018-May-19 19:00N 37°23' W 026°55'815.3
2018-May-19 18:28N 37°22' W 027°05'4715.1
2018-May-19 15:23N 37°16' W 028°03'614.8
2018-May-19 15:00N 37°15' W 028°10'1015.0
2018-May-19 14:20N 37°14' W 028°23'515.3
2018-May-19 14:00N 37°13' W 028°29'715.0
2018-May-19 13:30N 37°12' W 028°38'815.0
2018-May-19 13:00N 37°11' W 028°48'714.9
2018-May-19 12:30N 37°10' W 028°57'815.3
2018-May-19 12:00N 37°09' W 029°06'  
Track history (hours):
 
Tides and Currents Weather Stations Pressure Air Temp Water Temp Dewpoint Dewpoint Depression Visibility Wind Speed Wind Dir Waves Ship Positions

Apogee

Last reported at 2018-May-25 04:56 UTC. Time now 2018-May-25 05:22 UTC.
Position N 36°08' W 005°22'.

Length 62 m; draft 3.8 m.

Type: Pleasure craft. MMSI: 319989000.

Date/timePositionNaut miles runAvg speedWind from/ knotsBaromVisibWave heightAir tempDewpointWater temp
2018-May-25 04:56N 36°08' W 005°22'0 0.0
2018-May-25 04:26N 36°08' W 005°22'0 0.0
2018-May-24 01:08N 36°08' W 005°22'0 0.0
2018-May-24 00:56N 36°08' W 005°22'0 0.0
2018-May-24 00:20N 36°08' W 005°22'0 0.0
2018-May-23 23:56N 36°08' W 005°22'0 0.0
2018-May-23 23:26N 36°08' W 005°22'0 0.0
2018-May-23 22:56N 36°08' W 005°22'0 0.0
2018-May-23 21:44N 36°08' W 005°22'0 0.0
2018-May-23 20:20N 36°08' W 005°22'0 0.0
2018-May-22 21:43N 36°08' W 005°22'0 0.0
2018-May-22 21:25N 36°08' W 005°22'0 0.0
2018-May-22 18:18N 36°08' W 005°22'0 0.1
2018-May-22 18:01N 36°08' W 005°22'4 7.0
2018-May-22 17:30N 36°05' W 005°23'715.2
2018-May-22 17:00N 35°58' W 005°27'  
2018-May-20 05:10N 37°25' W 023°46'315.6
2018-May-20 05:00N 37°26' W 023°49'815.2
2018-May-20 04:30N 37°27' W 023°58'715.0
2018-May-20 04:00N 37°28' W 024°08'815.1
2018-May-20 03:30N 37°29' W 024°17'714.8
2018-May-20 03:00N 37°30' W 024°26'715.0
2018-May-20 02:30N 37°30' W 024°36'714.9
2018-May-20 02:00N 37°30' W 024°45'715.0
2018-May-20 01:30N 37°30' W 024°55'714.9
2018-May-20 01:00N 37°30' W 025°04'714.9
2018-May-20 00:30N 37°30' W 025°13'714.7
2018-May-20 00:00N 37°30' W 025°23'714.8
2018-May-19 23:30N 37°30' W 025°32'714.5
2018-May-19 23:00N 37°30' W 025°41'714.6
2018-May-19 22:31N 37°29' W 025°50'714.5
2018-May-19 22:00N 37°28' W 025°60'714.1
2018-May-19 21:30N 37°27' W 026°08'714.2
2018-May-19 21:01N 37°27' W 026°17'714.9
2018-May-19 20:30N 37°26' W 026°27'815.1
2018-May-19 20:00N 37°25' W 026°36'815.2
2018-May-19 19:31N 37°24' W 026°45'714.9
2018-May-19 19:00N 37°23' W 026°55'815.3
2018-May-19 18:28N 37°22' W 027°05'4715.1
2018-May-19 15:23N 37°16' W 028°03'614.8
2018-May-19 15:00N 37°15' W 028°10'1015.0
2018-May-19 14:20N 37°14' W 028°23'515.3
2018-May-19 14:00N 37°13' W 028°29'715.0
2018-May-19 13:30N 37°12' W 028°38'815.0
2018-May-19 13:00N 37°11' W 028°48'714.9
2018-May-19 12:30N 37°10' W 028°57'815.3
2018-May-19 12:00N 37°09' W 029°06'  

Dump ship's entire track history